Time;durP1;ratioP1;P1;durP2;ratioP2;P2;SDS_P1;SDS_P2;PMS_P1;PMS_P2;Temp;Humidity;BMP_temperature;BMP_pressure;BME280_temperature;BME280_humidity;BME280_pressure;Samples;Min_cycle;Max_cycle;Signal;HPM_P1;HPM_P2
2021/10/23 00:01:22;;;;;;;;;;;;;;;-142.75;100.00;78326.56;5032106;28;19913;-71
2021/10/23 00:03:47;;;;;;;;;;;;;;;-142.75;100.00;78322.63;5031635;28;19921;-69
2021/10/23 00:06:12;;;;;;;;;;;;;;;-142.75;100.00;78308.84;5032530;28;19919;-70
2021/10/23 00:08:37;;;;;;;;;;;;;;;-142.75;100.00;78302.94;5014115;28;19913;-70
2021/10/23 00:11:03;;;;;;;;;;;;;;;-142.75;100.00;78306.88;5031838;28;19913;-70
2021/10/23 00:13:28;;;;;;;;;;;;;;;-142.75;100.00;78293.06;5031771;28;20387;-71
2021/10/23 00:15:54;;;;;;;;;;;;;;;-142.75;100.00;78300.97;5031412;28;19920;-70
2021/10/23 00:18:19;;;;;;;;;;;;;;;-142.75;100.00;78291.09;5031582;28;19920;-70
2021/10/23 00:20:44;;;;;;;;;;;;;;;-142.75;100.00;78295.06;5031595;28;19916;-70
2021/10/23 00:23:10;;;;;;;;;;;;;;;-142.75;100.00;78299.00;5031624;28;19912;-70
2021/10/23 00:25:35;;;;;;;;;;;;;;;-142.75;100.00;78299.00;5031078;28;20282;-70
2021/10/23 00:28:00;;;;;;;;;;;;;;;-142.75;100.00;78302.94;5031203;28;19912;-70
2021/10/23 00:30:25;;;;;;;;;;;;;;;-142.75;100.00;78310.81;5031588;28;20014;-70
2021/10/23 00:32:51;;;;;;;;;;;;;;;-142.75;100.00;78326.56;5031474;28;20401;-70
2021/10/23 00:35:16;;;;;;;;;;;;;;;-142.75;100.00;78330.50;5013376;28;19913;-70
2021/10/23 00:37:42;;;;;;;;;;;;;;;-142.75;100.00;78336.41;5031806;28;19923;-70
2021/10/23 00:40:07;;;;;;;;;;;;;;;-142.75;100.00;78324.59;5013500;28;19952;-70
2021/10/23 00:42:34;;;;;;;;;;;;;;;-142.75;100.00;78326.56;5030933;28;19948;-69
2021/10/23 00:44:59;;;;;;;;;;;;;;;-142.75;100.00;78318.69;5030920;28;19913;-71
2021/10/23 00:47:24;;;;;;;;;;;;;;;-142.75;100.00;78320.66;5031059;28;19920;-71
2021/10/23 00:49:51;;;;;;;;;;;;;;;-142.75;100.00;78320.66;5031037;28;19921;-71
2021/10/23 00:52:18;;;;;;;;;;;;;;;-142.75;100.00;78326.56;5031114;28;19943;-70
2021/10/23 00:54:43;;;;;;;;;;;;;;;-142.75;100.00;78322.63;5030231;28;19967;-70
2021/10/23 00:57:08;;;;;;;;;;;;;;;-142.75;100.00;78324.59;5030431;28;19920;-70
2021/10/23 00:59:34;;;;;;;;;;;;;;;-142.75;100.00;78314.75;5013214;28;19916;-70
2021/10/23 01:02:00;;;;;;;;;;;;;;;-142.75;100.00;78316.72;5030853;28;19912;-70
2021/10/23 01:04:25;;;;;;;;;;;;;;;-142.75;100.00;78318.69;5030651;28;19920;-70
2021/10/23 01:06:51;;;;;;;;;;;;;;;-142.75;100.00;78318.69;5013453;28;19913;-70
2021/10/23 01:09:16;;;;;;;;;;;;;;;-142.75;100.00;78322.63;5013087;28;19920;-71
2021/10/23 01:11:42;;;;;;;;;;;;;;;-142.75;100.00;78326.56;5030679;28;20496;-70
2021/10/23 01:14:11;;;;;;;;;;;;;;;-142.75;100.00;78324.59;5018103;28;19967;-70
2021/10/23 01:16:36;;;;;;;;;;;;;;;-142.75;100.00;78330.50;5029516;28;19920;-71
2021/10/23 01:19:01;;;;;;;;;;;;;;;-142.75;100.00;78340.34;5014361;28;19921;-70
2021/10/23 01:21:26;;;;;;;;;;;;;;;-142.75;100.00;78334.44;5010918;28;19975;-70
2021/10/23 01:23:51;;;;;;;;;;;;;;;-142.75;100.00;78350.19;5010422;28;20394;-71
2021/10/23 01:26:23;;;;;;;;;;;;;;;-142.75;100.00;78342.31;5010782;28;19918;-70
2021/10/23 01:28:49;;;;;;;;;;;;;;;-142.75;100.00;78336.41;5006782;28;19967;-70
2021/10/23 01:31:14;;;;;;;;;;;;;;;-142.75;100.00;78330.50;5009378;28;19917;-70
2021/10/23 01:33:40;;;;;;;;;;;;;;;-142.75;100.00;78344.28;5010673;28;19913;-70
2021/10/23 01:36:13;;;;;;;;;;;;;;;-142.75;100.00;78338.38;5012943;28;20489;-70
2021/10/23 01:38:38;;;;;;;;;;;;;;;-142.75;100.00;78340.34;5022998;28;19917;-69
2021/10/23 01:41:05;;;;;;;;;;;;;;;-142.75;100.00;78365.94;5023063;28;19923;-70
2021/10/23 01:43:30;;;;;;;;;;;;;;;-142.75;100.00;78381.69;5010535;28;20441;-71
2021/10/23 01:45:56;;;;;;;;;;;;;;;-142.75;100.00;78395.47;5008717;28;19918;-70
2021/10/23 01:48:21;;;;;;;;;;;;;;;-142.75;100.00;78385.63;5010662;28;19923;-71
2021/10/23 01:50:46;;;;;;;;;;;;;;;-142.75;100.00;78389.56;5009153;28;20466;-71
2021/10/23 01:53:11;;;;;;;;;;;;;;;-142.75;100.00;78393.50;5014186;28;19962;-71
2021/10/23 01:55:36;;;;;;;;;;;;;;;-142.75;100.00;78399.44;5012028;28;19921;-71
2021/10/23 01:58:02;;;;;;;;;;;;;;;-142.75;100.00;78397.44;5029649;28;20379;-70
2021/10/23 02:00:27;;;;;;;;;;;;;;;-142.75;100.00;78397.44;5024372;28;19917;-70
2021/10/23 02:02:52;;;;;;;;;;;;;;;-142.75;100.00;78383.66;5009031;28;19913;-71
2021/10/23 02:05:17;;;;;;;;;;;;;;;-142.75;100.00;78391.53;5014472;28;19921;-70
2021/10/23 02:07:43;;;;;;;;;;;;;;;-142.75;100.00;78393.50;5008913;28;19987;-71
2021/10/23 02:10:08;;;;;;;;;;;;;;;-142.75;100.00;78397.44;5010180;28;19914;-69
2021/10/23 02:12:34;;;;;;;;;;;;;;;-142.75;100.00;78393.50;5019618;28;19952;-70
2021/10/23 02:14:59;;;;;;;;;;;;;;;-142.75;100.00;78399.44;5011724;28;19917;-71
2021/10/23 02:17:25;;;;;;;;;;;;;;;-142.75;100.00;78401.38;5009094;28;19920;-69
2021/10/23 02:19:50;;;;;;;;;;;;;;;-142.75;100.00;78411.25;5008860;28;19917;-69
2021/10/23 02:22:16;;;;;;;;;;;;;;;-142.75;100.00;78409.28;5008890;28;19913;-69
2021/10/23 02:24:41;;;;;;;;;;;;;;;-142.75;100.00;78407.31;5012454;28;20340;-68
2021/10/23 02:27:06;;;;;;;;;;;;;;;-142.75;100.00;78417.16;5008894;28;19920;-68
2021/10/23 02:29:31;;;;;;;;;;;;;;;-142.75;100.00;78425.03;5019177;28;19927;-69
2021/10/23 02:31:56;;;;;;;;;;;;;;;-142.75;100.00;78423.06;5028808;28;19913;-69
2021/10/23 02:34:22;;;;;;;;;;;;;;;-142.75;100.00;78423.06;5023871;28;19979;-68
2021/10/23 02:36:47;;;;;;;;;;;;;;;-142.75;100.00;78423.06;5027200;28;19913;-69
2021/10/23 02:39:12;;;;;;;;;;;;;;;-142.75;100.00;78423.06;5027913;28;19917;-69
2021/10/23 02:41:37;;;;;;;;;;;;;;;-142.75;100.00;78423.06;5019732;28;19913;-69
2021/10/23 02:44:03;;;;;;;;;;;;;;;-142.75;100.00;78417.16;5023546;28;19920;-70
2021/10/23 02:46:28;;;;;;;;;;;;;;;-142.75;100.00;78425.03;5008911;28;19988;-68
2021/10/23 02:48:53;;;;;;;;;;;;;;;-142.75;100.00;78417.16;5010080;28;19921;-70
2021/10/23 02:51:18;;;;;;;;;;;;;;;-142.75;100.00;78411.25;5008727;28;19920;-69
2021/10/23 02:53:43;;;;;;;;;;;;;;;-142.75;100.00;78411.25;5013787;28;20287;-68
2021/10/23 02:56:09;;;;;;;;;;;;;;;-142.75;100.00;78411.25;5011517;28;19928;-69
2021/10/23 02:58:34;;;;;;;;;;;;;;;-142.75;100.00;78415.19;5020547;28;19956;-68
2021/10/23 03:00:59;;;;;;;;;;;;;;;-142.75;100.00;78419.13;5009936;28;19947;-69
2021/10/23 03:03:24;;;;;;;;;;;;;;;-142.75;100.00;78432.91;5009860;28;19961;-69
2021/10/23 03:05:50;;;;;;;;;;;;;;;-142.75;100.00;78436.84;5008606;28;19913;-68
2021/10/23 03:08:15;;;;;;;;;;;;;;;-142.75;100.00;78444.72;5023362;28;19975;-68
2021/10/23 03:10:40;;;;;;;;;;;;;;;-142.75;100.00;78458.50;5012151;28;19959;-69
2021/10/23 03:13:06;;;;;;;;;;;;;;;-142.75;100.00;78472.28;5030091;28;20057;-68
2021/10/23 03:15:31;;;;;;;;;;;;;;;-142.75;100.00;78488.03;5008593;28;19917;-69
2021/10/23 03:17:56;;;;;;;;;;;;;;;-142.75;100.00;78484.09;5008815;28;20020;-69
2021/10/23 03:20:21;;;;;;;;;;;;;;;-142.75;100.00;78486.06;5017309;28;20428;-68
2021/10/23 03:22:46;;;;;;;;;;;;;;;-142.75;100.00;78491.97;5015645;28;19921;-68
2021/10/23 03:25:12;;;;;;;;;;;;;;;-142.75;100.00;78488.03;5014820;28;19956;-69
2021/10/23 03:27:37;;;;;;;;;;;;;;;-142.75;100.00;78488.03;5011812;28;19913;-69
2021/10/23 03:30:03;;;;;;;;;;;;;;;-142.75;100.00;78499.88;5015535;28;20302;-69
2021/10/23 03:32:28;;;;;;;;;;;;;;;-142.75;100.00;78503.81;5015226;28;19968;-69
2021/10/23 03:34:55;;;;;;;;;;;;;;;-142.75;100.00;78499.88;5025181;28;20291;-68
2021/10/23 03:37:20;;;;;;;;;;;;;;;-142.75;100.00;78497.91;5013717;28;20286;-68
2021/10/23 03:39:45;;;;;;;;;;;;;;;-142.75;100.00;78497.91;5012631;28;19921;-69
2021/10/23 03:42:11;;;;;;;;;;;;;;;-142.75;100.00;78495.94;5013112;28;19913;-69
2021/10/23 03:44:36;;;;;;;;;;;;;;;-142.75;100.00;78497.91;5012454;28;20386;-68
2021/10/23 03:47:01;;;;;;;;;;;;;;;-142.75;100.00;78499.88;5012651;28;20011;-69
2021/10/23 03:49:26;;;;;;;;;;;;;;;-142.75;100.00;78509.72;5011358;28;19913;-69
2021/10/23 03:51:51;;;;;;;;;;;;;;;-142.75;100.00;78513.66;5011113;28;19924;-68
2021/10/23 03:54:17;;;;;;;;;;;;;;;-142.75;100.00;78484.09;5012337;28;19913;-69
2021/10/23 03:56:42;;;;;;;;;;;;;;;-142.75;100.00;78503.81;5012653;28;19955;-69
2021/10/23 03:59:07;;;;;;;;;;;;;;;-142.75;100.00;78525.47;5012455;28;20363;-68
2021/10/23 04:01:33;;;;;;;;;;;;;;;-142.75;100.00;78533.34;5011131;28;20443;-69
2021/10/23 04:03:58;;;;;;;;;;;;;;;-142.75;100.00;78535.31;5014083;28;20268;-69
2021/10/23 04:06:25;;;;;;;;;;;;;;;-142.75;100.00;78529.41;5014854;28;19952;-69
2021/10/23 04:08:50;;;;;;;;;;;;;;;-142.75;100.00;78531.38;5032016;28;19921;-69
2021/10/23 04:11:15;;;;;;;;;;;;;;;-142.75;100.00;78539.25;5010778;28;20331;-68
2021/10/23 04:13:40;;;;;;;;;;;;;;;-142.75;100.00;78537.28;5012160;28;19913;-69
2021/10/23 04:16:05;;;;;;;;;;;;;;;-142.75;100.00;78547.13;5011977;28;19959;-68
2021/10/23 04:18:30;;;;;;;;;;;;;;;-142.75;100.00;78551.06;5012208;28;21573;-69
2021/10/23 04:20:56;;;;;;;;;;;;;;;-142.75;100.00;78547.13;5022101;28;20019;-68
2021/10/23 04:23:21;;;;;;;;;;;;;;;-142.75;100.00;78543.19;5031604;28;19924;-68
2021/10/23 04:25:46;;;;;;;;;;;;;;;-142.75;100.00;78549.09;5031299;28;19913;-69
2021/10/23 04:28:11;;;;;;;;;;;;;;;-142.75;100.00;78545.16;5052108;22;19928;-65
2021/10/23 04:30:36;;;;;;;;;;;;;;;-142.75;100.00;78541.22;5011744;28;19921;-66
2021/10/23 04:33:02;;;;;;;;;;;;;;;-142.75;100.00;78543.19;5031015;28;19920;-66
2021/10/23 04:35:27;;;;;;;;;;;;;;;-142.75;100.00;78547.13;5013641;28;19912;-66
2021/10/23 04:37:52;;;;;;;;;;;;;;;-142.75;100.00;78541.22;5027934;28;19913;-65
2021/10/23 04:40:17;;;;;;;;;;;;;;;-142.75;100.00;78541.22;5010125;28;19917;-65
2021/10/23 04:42:42;;;;;;;;;;;;;;;-142.75;100.00;78537.28;5011664;28;19913;-66
2021/10/23 04:45:08;;;;;;;;;;;;;;;-142.75;100.00;78535.31;5023280;28;19913;-66
2021/10/23 04:47:33;;;;;;;;;;;;;;;-142.75;100.00;78541.22;5031327;28;19920;-65
2021/10/23 04:49:58;;;;;;;;;;;;;;;-142.75;100.00;78539.25;5013389;28;19913;-66
2021/10/23 04:52:23;;;;;;;;;;;;;;;-142.75;100.00;78547.13;5031096;28;19913;-66
2021/10/23 04:54:49;;;;;;;;;;;;;;;-142.75;100.00;78543.19;5030803;28;20413;-65
2021/10/23 04:57:14;;;;;;;;;;;;;;;-142.75;100.00;78543.19;5031022;28;20008;-66
2021/10/23 04:59:39;;;;;;;;;;;;;;;-142.75;100.00;78543.19;5030948;28;20423;-66
2021/10/23 05:02:04;;;;;;;;;;;;;;;-142.75;100.00;78539.25;5030727;28;20306;-65
2021/10/23 05:04:29;;;;;;;;;;;;;;;-142.75;100.00;78539.25;5030601;28;19963;-66
2021/10/23 05:06:55;;;;;;;;;;;;;;;-142.75;100.00;78535.31;5031468;28;19913;-66
2021/10/23 05:09:20;;;;;;;;;;;;;;;-142.75;100.00;78531.38;5030787;28;20011;-66
2021/10/23 05:11:45;;;;;;;;;;;;;;;-142.75;100.00;78529.41;5030441;28;19913;-66
2021/10/23 05:14:10;;;;;;;;;;;;;;;-142.75;100.00;78531.38;5030405;28;19945;-66
2021/10/23 05:16:35;;;;;;;;;;;;;;;-142.75;100.00;78531.38;5030673;28;20433;-66
2021/10/23 05:19:01;;;;;;;;;;;;;;;-142.75;100.00;78541.22;5030531;28;19927;-66
2021/10/23 05:21:26;;;;;;;;;;;;;;;-142.75;100.00;78545.16;5030437;28;19913;-66
2021/10/23 05:23:55;;;;;;;;;;;;;;;-142.75;100.00;78547.13;5030219;28;19959;-66
2021/10/23 05:26:20;;;;;;;;;;;;;;;-142.75;100.00;78539.25;5012839;28;19946;-66
2021/10/23 05:28:45;;;;;;;;;;;;;;;-142.75;100.00;78533.34;5029986;28;19996;-66
2021/10/23 05:31:10;;;;;;;;;;;;;;;-142.75;100.00;78527.44;5030309;28;19917;-66
2021/10/23 05:33:35;;;;;;;;;;;;;;;-142.75;100.00;78511.69;5030346;28;19920;-66
2021/10/23 05:36:01;;;;;;;;;;;;;;;-142.75;100.00;78509.72;5030079;28;19931;-66
2021/10/23 05:38:26;;;;;;;;;;;;;;;-142.75;100.00;78503.81;5030610;28;19912;-66
2021/10/23 05:40:51;;;;;;;;;;;;;;;-142.75;100.00;78497.91;5029913;28;19921;-66
2021/10/23 05:43:16;;;;;;;;;;;;;;;-142.75;100.00;78493.97;5029894;28;20423;-66
2021/10/23 05:45:42;;;;;;;;;;;;;;;-142.75;100.00;78493.97;5029629;28;19921;-65
2021/10/23 05:48:07;;;;;;;;;;;;;;;-142.75;100.00;78501.84;5012456;28;20367;-65
2021/10/23 05:50:32;;;;;;;;;;;;;;;-142.75;100.00;78501.84;5030167;28;19913;-65
2021/10/23 05:52:57;;;;;;;;;;;;;;;-142.75;100.00;78507.75;5030287;28;20302;-65
2021/10/23 05:55:22;;;;;;;;;;;;;;;-142.75;100.00;78497.91;5029898;28;19920;-65
2021/10/23 05:57:48;;;;;;;;;;;;;;;-142.75;100.00;78499.88;5029929;28;19920;-65
2021/10/23 06:00:14;;;;;;;;;;;;;;;-142.75;100.00;78493.97;5030012;28;19917;-66
2021/10/23 06:02:40;;;;;;;;;;;;;;;-142.75;100.00;78490.00;5017905;28;19913;-65
2021/10/23 06:05:06;;;;;;;;;;;;;;;-142.75;100.00;78497.91;5010302;28;20394;-66
2021/10/23 06:07:34;;;;;;;;;;;;;;;-142.75;100.00;78495.94;5009630;28;19973;-65
2021/10/23 06:10:00;;;;;;;;;;;;;;;-142.75;100.00;78482.13;5010331;28;19963;-65
2021/10/23 06:12:25;;;;;;;;;;;;;;;-142.75;100.00;78491.97;5010210;28;19956;-66
2021/10/23 06:14:51;;;;;;;;;;;;;;;-142.75;100.00;78491.97;5009930;28;19909;-65
2021/10/23 06:17:16;;;;;;;;;;;;;;;-142.75;100.00;78486.06;5010316;28;19910;-66
2021/10/23 06:19:42;;;;;;;;;;;;;;;-142.75;100.00;78488.03;5010111;28;19925;-65
2021/10/23 06:22:07;;;;;;;;;;;;;;;-142.75;100.00;78491.97;5010130;28;19917;-65
2021/10/23 06:24:33;;;;;;;;;;;;;;;-142.75;100.00;78491.97;5009864;28;19909;-65
2021/10/23 06:26:58;;;;;;;;;;;;;;;-142.75;100.00;78495.94;5010178;28;19909;-65
2021/10/23 06:29:23;;;;;;;;;;;;;;;-142.75;100.00;78488.03;5009909;28;20335;-65
2021/10/23 06:31:49;;;;;;;;;;;;;;;-142.75;100.00;78484.09;5008789;28;19933;-65
2021/10/23 06:34:14;;;;;;;;;;;;;;;-142.75;100.00;78476.22;5009866;28;19913;-65
2021/10/23 06:36:39;;;;;;;;;;;;;;;-142.75;100.00;78468.34;5010478;28;19913;-66
2021/10/23 06:39:04;;;;;;;;;;;;;;;-142.75;100.00;78460.47;5009971;28;20287;-66
2021/10/23 06:41:30;;;;;;;;;;;;;;;-142.75;100.00;78458.50;5009999;28;19952;-66
2021/10/23 06:43:55;;;;;;;;;;;;;;;-142.75;100.00;78452.59;5009815;28;19965;-66
2021/10/23 06:46:23;;;;;;;;;;;;;;;-142.75;100.00;78454.56;5009506;28;19909;-66
2021/10/23 06:48:48;;;;;;;;;;;;;;;-142.75;100.00;78452.59;5009930;28;20282;-66
2021/10/23 06:51:15;;;;;;;;;;;;;;;-142.75;100.00;78444.72;5010007;28;19909;-66
2021/10/23 06:53:40;;;;;;;;;;;;;;;-142.75;100.00;78436.84;5010676;28;19940;-66
2021/10/23 06:56:05;;;;;;;;;;;;;;;-142.75;100.00;78432.91;5013381;28;20432;-66
2021/10/23 06:58:30;;;;;;;;;;;;;;;-142.75;100.00;78444.72;5013559;28;20390;-66
2021/10/23 07:00:55;;;;;;;;;;;;;;;-142.75;100.00;78440.78;5013550;28;20011;-66
2021/10/23 07:03:21;;;;;;;;;;;;;;;-142.75;100.00;78442.75;5013576;28;19916;-66
2021/10/23 07:05:47;;;;;;;;;;;;;;;-142.75;100.00;78442.75;5013260;28;19916;-66
2021/10/23 07:08:12;;;;;;;;;;;;;;;-142.75;100.00;78427.00;5013922;28;19916;-66
2021/10/23 07:10:39;;;;;;;;;;;;;;;-142.75;100.00;78427.00;5013432;28;19909;-66
2021/10/23 07:13:04;;;;;;;;;;;;;;;-142.75;100.00;78409.28;5013273;28;20008;-66
2021/10/23 07:15:29;;;;;;;;;;;;;;;-142.75;100.00;78409.28;5013084;28;20000;-66
2021/10/23 07:17:55;;;;;;;;;;;;;;;-142.75;100.00;78409.28;5013273;28;19915;-66
2021/10/23 07:20:20;;;;;;;;;;;;;;;-142.75;100.00;78393.50;5013256;28;19917;-66
2021/10/23 07:22:46;;;;;;;;;;;;;;;-142.75;100.00;78397.44;5013051;28;19909;-66
2021/10/23 07:25:11;;;;;;;;;;;;;;;-142.75;100.00;78397.44;5013026;28;19918;-67
2021/10/23 07:27:36;;;;;;;;;;;;;;;-142.75;100.00;78395.47;5012947;28;19956;-67
2021/10/23 07:30:03;;;;;;;;;;;;;;;-142.75;100.00;78393.50;5013114;28;19914;-66
2021/10/23 07:32:28;;;;;;;;;;;;;;;-142.75;100.00;78381.69;5011252;28;19916;-66
2021/10/23 07:34:53;;;;;;;;;;;;;;;-142.75;100.00;78381.69;5011652;28;19909;-65
2021/10/23 07:37:18;;;;;;;;;;;;;;;-142.75;100.00;78381.69;5012515;28;19909;-66
2021/10/23 07:39:44;;;;;;;;;;;;;;;-142.75;100.00;78385.63;5011940;28;19936;-66
2021/10/23 07:42:09;;;;;;;;;;;;;;;-142.75;100.00;78385.63;5031602;28;19935;-65
2021/10/23 07:44:34;;;;;;;;;;;;;;;-142.75;100.00;78381.69;5013390;28;19909;-66
2021/10/23 07:46:59;;;;;;;;;;;;;;;-142.75;100.00;78385.63;5031006;28;19947;-66
2021/10/23 07:49:24;;;;;;;;;;;;;;;-142.75;100.00;78385.63;5031221;28;19975;-65
2021/10/23 07:51:49;;;;;;;;;;;;;;;-142.75;100.00;78383.66;5031032;28;20019;-65
2021/10/23 07:54:15;;;;;;;;;;;;;;;-142.75;100.00;78395.47;5031074;28;19913;-66
2021/10/23 07:56:42;;;;;;;;;;;;;;;-142.75;100.00;78381.69;5031307;28;19963;-65
2021/10/23 07:59:08;;;;;;;;;;;;;;;-142.75;100.00;78379.72;5012694;28;19915;-66
2021/10/23 08:01:33;;;;;;;;;;;;;;;-142.75;100.00;78379.72;5031223;28;19909;-66
2021/10/23 08:03:58;;;;;;;;;;;;;;;-142.75;100.00;78379.72;5030613;28;20278;-65
2021/10/23 08:06:23;;;;;;;;;;;;;;;-142.75;100.00;78377.75;5031176;28;19909;-66
2021/10/23 08:08:48;;;;;;;;;;;;;;;-142.75;100.00;78377.75;5031710;28;20000;-66
2021/10/23 08:11:14;;;;;;;;;;;;;;;-142.75;100.00;78369.88;5030631;28;19909;-67
2021/10/23 08:13:39;;;;;;;;;;;;;;;-142.75;100.00;78352.16;5013394;28;19919;-69
2021/10/23 08:16:05;;;;;;;;;;;;;;;-142.75;100.00;78350.19;5012786;28;19995;-67
2021/10/23 08:18:30;;;;;;;;;;;;;;;-142.75;100.00;78350.19;5028247;28;20385;-67
2021/10/23 08:20:56;;;;;;;;;;;;;;;-142.75;100.00;78346.25;5009764;28;19913;-67
2021/10/23 08:23:22;;;;;;;;;;;;;;;-142.75;100.00;78354.13;5011137;28;19970;-68
2021/10/23 08:25:47;;;;;;;;;;;;;;;-142.75;100.00;78340.34;5010733;28;20452;-67
2021/10/23 08:28:12;;;;;;;;;;;;;;;-142.75;100.00;78340.34;5010762;28;20019;-67
2021/10/23 08:30:37;;;;;;;;;;;;;;;-142.75;100.00;78350.19;5009442;28;19917;-67
2021/10/23 08:33:03;;;;;;;;;;;;;;;-142.75;100.00;78358.06;5009770;28;20000;-67
2021/10/23 08:35:29;;;;;;;;;;;;;;;-142.75;100.00;78340.34;5020234;28;19932;-67
2021/10/23 08:37:55;;;;;;;;;;;;;;;-142.75;100.00;78348.22;5013185;28;19916;-67
2021/10/23 08:40:21;;;;;;;;;;;;;;;-142.75;100.00;78358.06;5030195;28;19932;-66
2021/10/23 08:42:47;;;;;;;;;;;;;;;-142.75;100.00;78348.22;5012671;28;19913;-66
2021/10/23 08:45:13;;;;;;;;;;;;;;;-142.75;100.00;78332.47;5011858;28;20275;-67
2021/10/23 08:47:39;;;;;;;;;;;;;;;-142.75;100.00;78330.50;5030501;28;20051;-66
2021/10/23 08:50:05;;;;;;;;;;;;;;;-142.75;100.00;78342.31;5030625;28;19921;-67
2021/10/23 08:52:30;;;;;;;;;;;;;;;-142.75;100.00;78338.38;5031542;28;19970;-67
2021/10/23 08:54:56;;;;;;;;;;;;;;;-142.75;100.00;78332.47;5031140;28;19913;-66
2021/10/23 08:57:25;;;;;;;;;;;;;;;-142.75;100.00;78326.56;5031362;28;20367;-67
2021/10/23 08:59:50;;;;;;;;;;;;;;;-142.75;100.00;78330.50;5030980;28;19925;-67
2021/10/23 09:02:18;;;;;;;;;;;;;;;-142.75;100.00;78318.69;5031487;28;20386;-67
2021/10/23 09:04:43;;;;;;;;;;;;;;;-142.75;100.00;78316.72;5031050;28;19920;-67
2021/10/23 09:07:09;;;;;;;;;;;;;;;-142.75;100.00;78308.84;5031400;28;19913;-67
2021/10/23 09:09:45;;;;;;;;;;;;;;;-142.75;100.00;78299.00;5031663;28;19913;-66
2021/10/23 09:12:18;;;;;;;;;;;;;;;-142.75;100.00;78300.97;5031182;28;20301;-66
2021/10/23 09:14:44;;;;;;;;;;;;;;;-142.75;100.00;78306.88;5031371;28;20000;-67
2021/10/23 09:17:14;;;;;;;;;;;;;;;-142.75;100.00;78297.00;5031655;28;19913;-67
2021/10/23 09:19:44;;;;;;;;;;;;;;;-142.75;100.00;78293.06;5031759;28;20390;-66
2021/10/23 09:22:23;;;;;;;;;;;;;;;-142.75;100.00;78287.16;5032004;28;19913;-66
2021/10/23 09:24:49;;;;;;;;;;;;;;;-142.75;100.00;78275.34;5013815;28;20295;-66
2021/10/23 09:27:18;;;;;;;;;;;;;;;-142.75;100.00;78283.22;5031564;28;19956;-67
2021/10/23 09:29:43;;;;;;;;;;;;;;;-142.75;100.00;78269.44;5031400;28;20302;-67
2021/10/23 09:32:10;;;;;;;;;;;;;;;-142.75;100.00;78267.47;5031761;28;19920;-67
2021/10/23 09:34:36;;;;;;;;;;;;;;;-142.75;100.00;78269.44;5031304;28;19986;-67
2021/10/23 09:37:03;;;;;;;;;;;;;;;-142.75;100.00;78279.28;5031404;28;20276;-67
2021/10/23 09:39:29;;;;;;;;;;;;;;;-142.75;100.00;78273.38;5030102;28;20268;-66
2021/10/23 09:42:14;;;;;;;;;;;;;;;-142.75;100.00;78267.47;5029990;28;19920;-67
2021/10/23 09:45:00;;;;;;;;;;;;;;;-142.75;100.00;78255.66;5029866;28;20406;-66
2021/10/23 09:47:25;;;;;;;;;;;;;;;-142.75;100.00;78259.59;5030196;28;19913;-67
2021/10/23 09:50:13;;;;;;;;;;;;;;;-142.75;100.00;78265.50;5009123;28;19968;-66
2021/10/23 09:52:57;;;;;;;;;;;;;;;-142.75;100.00;78251.72;5011671;28;19913;-66
2021/10/23 09:55:23;;;;;;;;;;;;;;;-142.75;100.00;78255.66;5029103;28;19913;-66
2021/10/23 09:58:04;;;;;;;;;;;;;;;-142.75;100.00;78251.72;5029302;28;19995;-67
2021/10/23 10:00:29;;;;;;;;;;;;;;;-142.75;100.00;78255.66;5029047;28;20007;-67
2021/10/23 10:02:55;;;;;;;;;;;;;;;-142.75;100.00;78243.84;5029156;28;20003;-67
2021/10/23 10:05:20;;;;;;;;;;;;;;;-142.75;100.00;78239.91;5028808;28;19912;-67
2021/10/23 10:07:45;;;;;;;;;;;;;;;-142.75;100.00;78234.00;5029875;28;19920;-67
2021/10/23 10:10:11;;;;;;;;;;;;;;;-142.75;100.00;78224.16;5029237;28;22116;-67
2021/10/23 10:12:36;;;;;;;;;;;;;;;-142.75;100.00;78228.09;5028905;28;19920;-68
2021/10/23 10:15:04;;;;;;;;;;;;;;;-142.75;100.00;78208.41;5028815;28;19992;-67
2021/10/23 10:17:30;;;;;;;;;;;;;;;-142.75;100.00;78214.31;5011433;28;19963;-67
2021/10/23 10:19:55;;;;;;;;;;;;;;;-142.75;100.00;78220.22;5029624;28;19960;-66
2021/10/23 10:22:20;;;;;;;;;;;;;;;-142.75;100.00;78210.38;5029578;28;20003;-67
2021/10/23 10:24:46;;;;;;;;;;;;;;;-142.75;100.00;78212.34;5029448;28;20370;-67
2021/10/23 10:27:13;;;;;;;;;;;;;;;-142.75;100.00;78204.47;5029697;28;19913;-67
2021/10/23 10:29:50;;;;;;;;;;;;;;;-142.75;100.00;78200.53;5014258;22;20352;-72
2021/10/23 10:34:55;;;;;;;;;;;;;;;-142.75;100.00;78198.56;4979823;28;19921;-70
2021/10/23 10:39:55;;;;;;;;;;;;;;;-142.75;100.00;78188.72;4990461;28;20008;-70
2021/10/23 10:45:40;;;;;;;;;;;;;;;-142.75;100.00;78210.38;4934308;29;20389;-70
2021/10/23 10:48:07;;;;;;;;;;;;;;;-142.75;100.00;78208.41;4934955;29;20005;-69
2021/10/23 10:50:37;;;;;;;;;;;;;;;-142.75;100.00;78194.63;4949590;28;19914;-71
2021/10/23 10:53:12;;;;;;;;;;;;;;;-142.75;100.00;78200.53;4983866;28;19917;-70
2021/10/23 10:55:38;;;;;;;;;;;;;;;-142.75;100.00;78194.63;4979819;28;19921;-68
2021/10/23 10:58:09;;;;;;;;;;;;;;;-142.75;100.00;78167.03;4975856;28;19922;-70
2021/10/23 11:00:49;;;;;;;;;;;;;;;-142.75;100.00;78149.31;4993407;28;19980;-70
2021/10/23 11:03:35;;;;;;;;;;;;;;;-142.75;100.00;78172.94;4992573;28;19936;-70
2021/10/23 11:06:20;;;;;;;;;;;;;;;-142.75;100.00;78165.06;4982658;28;19923;-70
2021/10/23 11:08:45;;;;;;;;;;;;;;;-142.75;100.00;78145.38;4948941;28;20000;-70
2021/10/23 11:11:11;;;;;;;;;;;;;;;-142.75;100.00;78129.63;4986847;28;20008;-71
2021/10/23 11:13:43;;;;;;;;;;;;;;;-142.75;100.00;78141.44;4982068;28;19921;-74
2021/10/23 11:16:27;;;;;;;;;;;;;;;-142.75;100.00;78139.47;4982292;28;19922;-70
2021/10/23 11:18:57;;;;;;;;;;;;;;;-142.75;100.00;78155.22;4989676;28;19914;-71
2021/10/23 11:21:22;;;;;;;;;;;;;;;-142.75;100.00;78151.28;4986353;28;19917;-71
2021/10/23 11:23:51;;;;;;;;;;;;;;;-142.75;100.00;78149.31;4974955;28;19942;-69
2021/10/23 11:26:17;;;;;;;;;;;;;;;-142.75;100.00;78151.28;4988994;28;19921;-71
2021/10/23 11:28:43;;;;;;;;;;;;;;;-142.75;100.00;78147.34;4984008;28;20422;-70
2021/10/23 11:31:15;;;;;;;;;;;;;;;-142.75;100.00;78157.19;4990239;28;19926;-69
2021/10/23 11:33:41;;;;;;;;;;;;;;;-142.75;100.00;78145.38;4986403;28;20662;-69
2021/10/23 11:36:13;;;;;;;;;;;;;;;-142.75;100.00;78133.56;4975869;28;20009;-70
2021/10/23 11:38:41;;;;;;;;;;;;;;;-142.75;100.00;78127.66;4979675;28;19946;-70
2021/10/23 11:41:06;;;;;;;;;;;;;;;-142.75;100.00;78145.38;4987050;28;19918;-70
2021/10/23 11:43:39;;;;;;;;;;;;;;;-142.75;100.00;78131.59;4980242;28;19914;-71
2021/10/23 11:46:06;;;;;;;;;;;;;;;-142.75;100.00;78125.69;4983650;28;19914;-69
2021/10/23 11:48:31;;;;;;;;;;;;;;;-142.75;100.00;78125.69;4977741;28;20120;-70
2021/10/23 11:50:56;;;;;;;;;;;;;;;-142.75;100.00;78125.69;4980300;28;20460;-71
2021/10/23 11:53:30;;;;;;;;;;;;;;;-142.75;100.00;78111.91;4990256;28;20291;-70
2021/10/23 11:56:02;;;;;;;;;;;;;;;-142.75;100.00;78119.78;4975690;28;19921;-68
2021/10/23 11:58:31;;;;;;;;;;;;;;;-142.75;100.00;78121.75;4984371;28;19921;-70
2021/10/23 12:01:01;;;;;;;;;;;;;;;-142.75;100.00;78109.94;4977579;28;19925;-69
2021/10/23 12:03:29;;;;;;;;;;;;;;;-142.75;100.00;78094.19;4980783;28;19968;-70
2021/10/23 12:05:54;;;;;;;;;;;;;;;-142.75;100.00;78094.19;4989921;28;20455;-69
2021/10/23 12:08:19;;;;;;;;;;;;;;;-142.75;100.00;78096.16;4988795;28;19917;-71
2021/10/23 12:10:59;;;;;;;;;;;;;;;-142.75;100.00;78109.94;4987712;28;20531;-70
2021/10/23 12:13:25;;;;;;;;;;;;;;;-142.75;100.00;78106.00;4992646;28;19960;-68
2021/10/23 12:15:59;;;;;;;;;;;;;;;-142.75;100.00;78107.97;4988288;28;19917;-69
2021/10/23 12:18:28;;;;;;;;;;;;;;;-142.75;100.00;78098.13;4982827;28;19921;-69
2021/10/23 12:20:54;;;;;;;;;;;;;;;-142.75;100.00;78092.22;4978558;28;20008;-69
2021/10/23 12:23:37;;;;;;;;;;;;;;;-142.75;100.00;78080.41;4974377;28;20447;-71